createdAt,value
2019-02-18T00:01:18.598Z,7.40
2019-02-18T00:03:46.746Z,7.40
2019-02-18T00:06:14.902Z,7.40
2019-02-18T00:08:42.934Z,7.30
2019-02-18T00:11:11.031Z,7.30
2019-02-18T00:13:39.087Z,7.30
2019-02-18T00:16:07.180Z,7.20
2019-02-18T00:18:35.295Z,7.20
2019-02-18T00:21:08.316Z,7.20
2019-02-18T00:23:36.620Z,7.20
2019-02-18T00:26:04.977Z,7.20
2019-02-18T00:28:33.176Z,7.20
2019-02-18T00:31:01.353Z,7.30
2019-02-18T00:33:29.479Z,7.30
2019-02-18T00:35:57.617Z,7.30
2019-02-18T00:38:26.309Z,7.30
2019-02-18T00:40:54.501Z,7.30
2019-02-18T00:43:22.637Z,7.30
2019-02-18T00:45:50.792Z,7.30
2019-02-18T00:48:18.922Z,7.30
2019-02-18T00:50:47.038Z,7.30
2019-02-18T00:53:15.135Z,7.30
2019-02-18T00:55:43.341Z,7.30
2019-02-18T00:58:11.590Z,7.30
2019-02-18T01:00:39.651Z,7.20
2019-02-18T01:03:07.838Z,7.20
2019-02-18T01:05:36.054Z,7.30
2019-02-18T01:08:04.117Z,7.30
2019-02-18T01:10:32.223Z,7.20
2019-02-18T01:13:00.259Z,7.20
2019-02-18T01:15:28.288Z,7.20
2019-02-18T01:17:56.424Z,7.20
2019-02-18T01:20:24.519Z,7.10
2019-02-18T01:22:52.787Z,7.10
2019-02-18T01:25:20.862Z,7.10
2019-02-18T01:27:48.917Z,7.10
2019-02-18T01:30:16.960Z,7.10
2019-02-18T01:32:45.275Z,7.00
2019-02-18T01:35:13.513Z,7.10
2019-02-18T01:37:45.676Z,7.00
2019-02-18T01:40:13.160Z,7.00
2019-02-18T01:42:41.185Z,6.90
2019-02-18T01:45:10.943Z,6.90
2019-02-18T01:47:39.068Z,6.80
2019-02-18T01:50:13.039Z,6.80
2019-02-18T01:52:41.154Z,6.80
2019-02-18T01:55:10.809Z,6.80
2019-02-18T01:57:39.005Z,6.80
2019-02-18T02:00:11.081Z,6.70
2019-02-18T02:02:39.415Z,6.70
2019-02-18T02:05:08.820Z,6.70
2019-02-18T02:07:36.930Z,6.60
2019-02-18T02:10:05.780Z,6.60
2019-02-18T02:12:34.052Z,6.60
2019-02-18T02:15:04.624Z,6.60
2019-02-18T02:17:32.827Z,6.60
2019-02-18T02:20:00.863Z,6.60
2019-02-18T02:22:29.018Z,6.50
2019-02-18T02:24:57.151Z,6.60
2019-02-18T02:27:25.197Z,6.60
2019-02-18T02:29:53.259Z,6.60
2019-02-18T02:32:21.397Z,6.60
2019-02-18T02:34:49.570Z,6.60
2019-02-18T02:37:17.621Z,6.60
2019-02-18T02:39:45.833Z,6.70
2019-02-18T02:42:13.931Z,6.70
2019-02-18T02:44:42.052Z,6.70
2019-02-18T02:47:10.136Z,6.70
2019-02-18T02:49:38.335Z,6.70
2019-02-18T02:52:06.457Z,6.70
2019-02-18T02:54:34.468Z,6.70
2019-02-18T02:57:02.757Z,6.70
2019-02-18T02:59:30.977Z,6.80
2019-02-18T03:01:59.588Z,6.70
2019-02-18T03:04:27.711Z,6.70
2019-02-18T03:06:55.798Z,6.70
2019-02-18T03:09:23.942Z,6.80
2019-02-18T03:11:52.101Z,6.80
2019-02-18T03:14:20.228Z,6.80
2019-02-18T03:16:48.421Z,6.80
2019-02-18T03:19:16.657Z,6.80
2019-02-18T03:21:45.038Z,6.80
2019-02-18T03:24:13.116Z,6.80
2019-02-18T03:26:41.236Z,6.80
2019-02-18T03:30:03.764Z,6.80
2019-02-18T03:32:43.026Z,6.80
2019-02-18T03:35:11.078Z,6.70
2019-02-18T03:37:39.473Z,6.70
2019-02-18T03:40:13.113Z,6.80
2019-02-18T03:42:41.800Z,6.80
2019-02-18T03:45:10.033Z,6.80
2019-02-18T03:47:38.146Z,6.80
2019-02-18T03:50:06.522Z,6.80
2019-02-18T03:52:34.670Z,6.80
2019-02-18T03:55:03.091Z,6.80
2019-02-18T03:57:31.172Z,6.80
2019-02-18T03:59:59.371Z,6.80
2019-02-18T04:02:27.469Z,6.80
2019-02-18T04:04:55.551Z,6.80
2019-02-18T04:07:23.684Z,6.80
2019-02-18T04:09:52.801Z,6.80
2019-02-18T04:12:20.951Z,6.80
2019-02-18T04:14:49.205Z,6.80
2019-02-18T04:17:17.379Z,6.70
2019-02-18T04:19:45.455Z,6.70
2019-02-18T04:22:13.676Z,6.80
2019-02-18T04:24:41.822Z,6.80
2019-02-18T04:27:09.911Z,6.80
2019-02-18T04:29:39.118Z,6.90
2019-02-18T04:32:07.199Z,6.90
2019-02-18T04:34:35.404Z,6.90
2019-02-18T04:37:03.553Z,6.80
2019-02-18T04:39:32.003Z,6.80
2019-02-18T04:42:00.227Z,6.90
2019-02-18T04:44:28.276Z,6.90
2019-02-18T04:46:56.310Z,6.90
2019-02-18T04:49:24.466Z,6.90
2019-02-18T04:51:52.499Z,6.90
2019-02-18T04:54:20.640Z,6.80
2019-02-18T04:56:48.772Z,6.80
2019-02-18T04:59:16.873Z,6.80
2019-02-18T05:01:45.151Z,6.90
2019-02-18T05:04:14.181Z,6.90
2019-02-18T05:06:43.549Z,6.90
2019-02-18T05:09:11.814Z,6.90
2019-02-18T05:11:39.996Z,6.90
2019-02-18T05:14:08.152Z,6.90
2019-02-18T05:16:36.436Z,6.90
2019-02-18T05:19:04.509Z,6.90
2019-02-18T05:21:32.535Z,6.90
2019-02-18T05:24:00.591Z,6.90
2019-02-18T05:26:28.932Z,6.90
2019-02-18T05:28:57.016Z,6.90
2019-02-18T05:31:25.078Z,6.90
2019-02-18T05:33:53.312Z,6.90
2019-02-18T05:36:21.338Z,6.90
2019-02-18T05:38:49.530Z,6.90
2019-02-18T05:41:17.670Z,6.90
2019-02-18T05:43:45.765Z,6.90
2019-02-18T05:46:13.881Z,6.90
2019-02-18T05:48:42.095Z,6.90
2019-02-18T05:51:10.211Z,6.80
2019-02-18T05:53:38.368Z,6.90
2019-02-18T05:56:06.462Z,6.90
2019-02-18T05:58:34.460Z,6.90
2019-02-18T06:01:02.661Z,6.90
2019-02-18T06:03:30.705Z,6.80
2019-02-18T06:05:58.869Z,6.80
2019-02-18T06:08:27.128Z,6.70
2019-02-18T06:10:55.271Z,6.70
2019-02-18T06:13:25.408Z,6.70
2019-02-18T06:15:53.398Z,6.70
2019-02-18T06:18:21.551Z,6.70
2019-02-18T06:20:49.665Z,6.70
2019-02-18T06:23:17.787Z,6.60
2019-02-18T06:25:45.959Z,6.70
2019-02-18T06:28:13.995Z,6.70
2019-02-18T06:30:42.117Z,6.70
2019-02-18T06:33:10.228Z,6.70
2019-02-18T06:35:38.349Z,6.70
2019-02-18T06:38:06.506Z,6.60
2019-02-18T06:40:34.667Z,6.60
2019-02-18T06:43:03.892Z,6.60
2019-02-18T06:45:38.773Z,6.60
2019-02-18T06:48:35.442Z,6.60
2019-02-18T06:51:03.648Z,6.60
2019-02-18T06:53:31.793Z,6.70
2019-02-18T06:55:59.962Z,6.70
2019-02-18T06:58:35.602Z,6.70
2019-02-18T07:01:26.001Z,6.70
2019-02-18T07:04:13.660Z,6.80
2019-02-18T07:06:54.129Z,6.80
2019-02-18T07:09:31.184Z,6.80
2019-02-18T07:12:04.606Z,6.80
2019-02-18T07:14:32.722Z,6.80
2019-02-18T07:17:00.958Z,6.80
2019-02-18T07:19:30.298Z,6.90
2019-02-18T07:21:58.483Z,6.90
2019-02-18T07:24:26.695Z,6.90
2019-02-18T07:26:54.800Z,6.80
2019-02-18T07:29:22.990Z,6.80
2019-02-18T07:31:51.066Z,6.80
2019-02-18T07:34:19.087Z,6.80
2019-02-18T07:36:47.318Z,6.80
2019-02-18T07:39:15.450Z,6.80
2019-02-18T07:41:43.706Z,6.80
2019-02-18T07:44:11.891Z,6.80
2019-02-18T07:46:40.215Z,6.80
2019-02-18T07:49:08.385Z,7.00
2019-02-18T07:51:36.497Z,7.20
2019-02-18T07:54:04.640Z,7.30
2019-02-18T07:56:32.681Z,7.40
2019-02-18T07:59:00.986Z,7.60
2019-02-18T08:01:29.034Z,7.70
2019-02-18T08:03:57.110Z,7.80
2019-02-18T08:06:25.363Z,8.00
2019-02-18T08:08:53.537Z,8.00
2019-02-18T08:11:22.656Z,8.00
2019-02-18T08:13:50.823Z,8.10
2019-02-18T08:16:18.887Z,8.20
2019-02-18T08:18:47.228Z,8.10
2019-02-18T08:21:16.228Z,8.10
2019-02-18T08:23:44.357Z,8.20
2019-02-18T08:26:15.287Z,8.20
2019-02-18T08:28:43.349Z,8.20
2019-02-18T08:31:11.577Z,8.20
2019-02-18T08:33:39.641Z,8.30
2019-02-18T08:36:07.815Z,8.40
2019-02-18T08:38:35.940Z,8.50
2019-02-18T08:41:04.163Z,8.50
2019-02-18T08:43:32.439Z,8.60
2019-02-18T08:46:02.627Z,8.70
2019-02-18T08:48:30.817Z,8.80
2019-02-18T08:50:58.865Z,8.80
2019-02-18T08:53:26.867Z,8.90
2019-02-18T08:55:54.936Z,9.00
2019-02-18T08:58:22.977Z,9.10
2019-02-18T09:00:51.056Z,9.10
2019-02-18T09:03:19.148Z,9.20
2019-02-18T09:05:47.175Z,9.40
2019-02-18T09:08:15.191Z,9.50
2019-02-18T09:10:43.219Z,9.50
2019-02-18T09:13:11.337Z,9.60
2019-02-18T09:15:39.548Z,9.70
2019-02-18T09:18:07.718Z,9.80
2019-02-18T09:20:35.892Z,9.90
2019-02-18T09:23:21.838Z,9.90
2019-02-18T09:25:54.210Z,10.00
2019-02-18T09:28:23.402Z,10.10
2019-02-18T09:30:53.664Z,10.20
2019-02-18T09:33:21.710Z,10.30
2019-02-18T09:35:49.747Z,10.30
2019-02-18T09:38:24.780Z,10.40
2019-02-18T09:40:51.430Z,10.50
2019-02-18T09:43:19.177Z,10.50
2019-02-18T09:45:47.229Z,10.60
2019-02-18T09:48:15.340Z,10.70
2019-02-18T09:50:44.666Z,10.70
2019-02-18T09:53:12.879Z,10.80
2019-02-18T09:55:41.017Z,10.90
2019-02-18T09:58:09.300Z,11.00
2019-02-18T10:00:37.673Z,11.10
2019-02-18T10:03:05.747Z,11.30
2019-02-18T10:05:33.973Z,11.30
2019-02-18T10:08:02.159Z,11.40
2019-02-18T10:10:30.340Z,11.40
2019-02-18T10:12:59.680Z,11.50
2019-02-18T10:15:27.952Z,11.60
2019-02-18T10:17:55.979Z,11.70
2019-02-18T10:20:24.197Z,11.70
2019-02-18T10:22:52.201Z,11.70
2019-02-18T10:25:20.324Z,11.80
2019-02-18T10:27:48.700Z,11.90
2019-02-18T10:30:16.808Z,12.20
2019-02-18T10:32:45.075Z,12.50
2019-02-18T10:35:13.213Z,12.70
2019-02-18T10:37:41.585Z,12.90
2019-02-18T10:40:10.114Z,13.10
2019-02-18T10:42:39.344Z,13.10
2019-02-18T10:45:09.288Z,13.10
2019-02-18T10:47:38.000Z,13.20
2019-02-18T10:50:07.575Z,13.50
2019-02-18T10:52:35.902Z,13.80
2019-02-18T10:55:03.997Z,14.00
2019-02-18T10:57:32.174Z,14.10
2019-02-18T11:00:00.389Z,14.20
2019-02-18T11:02:28.540Z,14.30
2019-02-18T11:04:56.612Z,14.40
2019-02-18T11:07:27.190Z,14.40
2019-02-18T11:09:55.389Z,14.20
2019-02-18T11:12:23.530Z,14.00
2019-02-18T11:14:51.612Z,14.00
2019-02-18T11:17:19.772Z,14.10
2019-02-18T11:19:48.100Z,14.10
2019-02-18T11:22:16.987Z,14.00
2019-02-18T11:24:45.266Z,14.00
2019-02-18T11:27:13.397Z,13.90
2019-02-18T11:29:41.470Z,13.80
2019-02-18T11:32:09.491Z,13.70
2019-02-18T11:34:37.655Z,13.70
2019-02-18T11:37:06.142Z,13.70
2019-02-18T11:39:34.232Z,13.80
2019-02-18T11:42:02.294Z,13.80
2019-02-18T11:44:30.412Z,13.80
2019-02-18T11:46:58.482Z,13.80
2019-02-18T11:49:26.718Z,13.80
2019-02-18T11:51:55.025Z,13.80
2019-02-18T11:54:23.099Z,13.80
2019-02-18T11:56:51.248Z,13.90
2019-02-18T11:59:24.201Z,13.90
2019-02-18T12:01:49.332Z,14.00
2019-02-18T12:04:17.544Z,14.00
2019-02-18T12:06:45.618Z,14.00
2019-02-18T12:09:13.975Z,14.00
2019-02-18T12:11:42.183Z,14.10
2019-02-18T12:14:10.245Z,14.10
2019-02-18T12:16:38.370Z,14.10
2019-02-18T12:19:07.617Z,14.20
2019-02-18T12:21:35.830Z,14.20
2019-02-18T12:24:03.918Z,14.30
2019-02-18T12:26:32.371Z,14.40
2019-02-18T12:29:00.653Z,14.50
2019-02-18T12:31:28.796Z,14.50
2019-02-18T12:33:56.873Z,14.50
2019-02-18T12:36:24.978Z,14.60
2019-02-18T12:38:53.086Z,14.70
2019-02-18T12:41:21.248Z,14.80
2019-02-18T12:43:49.478Z,14.80
2019-02-18T12:46:17.527Z,14.90
2019-02-18T12:48:45.784Z,15.00
2019-02-18T12:51:15.339Z,15.00
2019-02-18T12:53:46.090Z,15.00
2019-02-18T12:56:13.673Z,15.10
2019-02-18T12:58:42.054Z,15.10
2019-02-18T13:01:10.419Z,15.10
2019-02-18T13:03:38.593Z,15.10
2019-02-18T13:06:06.732Z,15.10
2019-02-18T13:08:34.942Z,15.20
2019-02-18T13:11:03.202Z,15.30
2019-02-18T13:13:31.450Z,15.30
2019-02-18T13:15:59.691Z,15.30
2019-02-18T13:18:28.309Z,15.30
2019-02-18T13:20:56.560Z,15.30
2019-02-18T13:23:24.808Z,15.30
2019-02-18T13:25:53.085Z,15.30
2019-02-18T13:28:21.270Z,15.30
2019-02-18T13:30:49.560Z,15.30
2019-02-18T13:33:18.696Z,15.30
2019-02-18T13:35:46.856Z,15.30
2019-02-18T13:38:15.229Z,15.30
2019-02-18T13:40:43.467Z,15.30
2019-02-18T13:43:11.635Z,15.20
2019-02-18T13:45:39.803Z,15.20
2019-02-18T13:48:08.066Z,15.20
2019-02-18T13:50:36.278Z,15.20
2019-02-18T13:53:04.791Z,15.10
2019-02-18T13:55:33.005Z,15.10
2019-02-18T13:58:01.122Z,15.10
2019-02-18T14:00:30.900Z,15.10
2019-02-18T14:02:59.122Z,15.10
2019-02-18T14:05:27.246Z,15.10
2019-02-18T14:07:55.367Z,15.10
2019-02-18T14:10:23.474Z,15.10
2019-02-18T14:12:51.582Z,15.00
2019-02-18T14:15:20.464Z,15.00
2019-02-18T14:17:50.486Z,14.90
2019-02-18T14:20:18.899Z,14.90
2019-02-18T14:22:47.077Z,14.90
2019-02-18T14:25:15.400Z,14.90
2019-02-18T14:27:43.475Z,14.90
2019-02-18T14:30:13.030Z,14.90
2019-02-18T14:32:41.341Z,14.90
2019-02-18T14:35:10.013Z,14.90
2019-02-18T14:37:38.211Z,14.90
2019-02-18T14:40:08.269Z,14.90
2019-02-18T14:42:36.655Z,14.90
2019-02-18T14:45:05.158Z,14.80
2019-02-18T14:47:34.540Z,14.80
2019-02-18T14:50:02.833Z,14.70
2019-02-18T14:52:31.114Z,14.70
2019-02-18T14:54:59.263Z,14.70
2019-02-18T14:57:27.526Z,14.70
2019-02-18T14:59:55.580Z,14.70
2019-02-18T15:02:23.808Z,14.60
2019-02-18T15:04:51.900Z,14.70
2019-02-18T15:07:20.264Z,14.60
2019-02-18T15:09:48.606Z,14.60
2019-02-18T15:12:18.187Z,14.60
2019-02-18T15:14:46.363Z,14.70
2019-02-18T15:17:14.568Z,14.70
2019-02-18T15:19:42.727Z,14.60
2019-02-18T15:22:10.797Z,14.60
2019-02-18T15:24:38.930Z,14.60
2019-02-18T15:27:07.629Z,14.50
2019-02-18T15:29:35.834Z,14.50
2019-02-18T15:32:04.289Z,14.40
2019-02-18T15:34:32.378Z,14.40
2019-02-18T15:37:00.965Z,14.40
2019-02-18T15:39:29.321Z,14.40
2019-02-18T15:41:57.363Z,14.30
2019-02-18T15:44:25.919Z,14.30
2019-02-18T15:46:54.221Z,14.30
2019-02-18T15:49:23.016Z,14.30
2019-02-18T15:51:52.051Z,14.20
2019-02-18T15:54:20.914Z,14.20
2019-02-18T15:56:49.183Z,14.20
2019-02-18T15:59:19.644Z,14.10
2019-02-18T16:01:47.825Z,14.10
2019-02-18T16:04:16.610Z,14.10
2019-02-18T16:06:44.977Z,14.00
2019-02-18T16:09:13.130Z,14.10
2019-02-18T16:11:41.391Z,14.00
2019-02-18T16:14:09.558Z,14.00
2019-02-18T16:16:37.938Z,14.00
2019-02-18T16:19:06.065Z,13.90
2019-02-18T16:21:34.242Z,13.80
2019-02-18T16:24:02.694Z,13.80
2019-02-18T16:26:31.084Z,13.70
2019-02-18T16:28:59.270Z,13.70
2019-02-18T16:31:41.168Z,13.60
2019-02-18T16:34:12.895Z,13.50
2019-02-18T16:36:41.131Z,13.50
2019-02-18T16:39:10.365Z,13.40
2019-02-18T16:41:38.580Z,13.30
2019-02-18T16:44:06.990Z,13.30
2019-02-18T16:46:35.165Z,13.30
2019-02-18T16:49:03.610Z,13.20
2019-02-18T16:51:31.784Z,13.20
2019-02-18T16:53:59.856Z,13.10
2019-02-18T16:56:27.897Z,13.10
2019-02-18T16:58:56.081Z,13.10
2019-02-18T17:01:24.651Z,13.00
2019-02-18T17:03:53.944Z,12.90
2019-02-18T17:06:22.059Z,12.90
2019-02-18T17:08:50.251Z,12.80
2019-02-18T17:11:18.310Z,12.80
2019-02-18T17:13:46.507Z,12.70
2019-02-18T17:16:14.990Z,12.70
2019-02-18T17:18:44.230Z,12.60
2019-02-18T17:21:13.364Z,12.50
2019-02-18T17:23:41.502Z,12.50
2019-02-18T17:26:09.780Z,12.40
2019-02-18T17:28:38.042Z,12.40
2019-02-18T17:31:06.188Z,12.30
2019-02-18T17:33:34.286Z,12.30
2019-02-18T17:36:02.551Z,12.30
2019-02-18T17:38:30.738Z,12.20
2019-02-18T17:40:59.161Z,12.20
2019-02-18T17:43:29.546Z,12.10
2019-02-18T17:45:57.878Z,12.10
2019-02-18T17:48:26.464Z,12.00
2019-02-18T17:50:54.658Z,12.00
2019-02-18T17:53:22.926Z,11.90
2019-02-18T17:55:51.048Z,11.90
2019-02-18T17:58:19.146Z,11.90
2019-02-18T18:00:49.633Z,11.90
2019-02-18T18:03:17.884Z,11.80
2019-02-18T18:05:46.083Z,11.80
2019-02-18T18:08:14.216Z,11.70
2019-02-18T18:10:42.370Z,11.70
2019-02-18T18:13:10.557Z,11.70
2019-02-18T18:15:40.109Z,11.60
2019-02-18T18:18:08.923Z,11.60
2019-02-18T18:20:37.443Z,11.60
2019-02-18T18:23:06.383Z,11.50
2019-02-18T18:25:34.692Z,11.50
2019-02-18T18:28:03.012Z,11.50
2019-02-18T18:30:31.051Z,11.50
2019-02-18T18:32:59.112Z,11.40
2019-02-18T18:35:27.310Z,11.40
2019-02-18T18:37:55.785Z,11.30
2019-02-18T18:40:43.398Z,11.30
2019-02-18T18:43:11.779Z,11.20
2019-02-18T18:45:40.027Z,11.10
2019-02-18T18:48:09.178Z,11.10
2019-02-18T18:50:38.689Z,11.10
2019-02-18T18:53:07.219Z,11.00
2019-02-18T18:55:35.431Z,11.00
2019-02-18T18:58:03.919Z,10.90
2019-02-18T19:00:34.706Z,10.90
2019-02-18T19:03:03.401Z,10.80
2019-02-18T19:05:31.562Z,10.80
2019-02-18T19:08:00.267Z,10.80
2019-02-18T19:10:29.168Z,10.70
2019-02-18T19:12:58.155Z,10.70
2019-02-18T19:15:27.263Z,10.70
2019-02-18T19:17:56.814Z,10.60
2019-02-18T19:20:26.004Z,10.60
2019-02-18T19:22:54.756Z,10.60
2019-02-18T19:25:23.749Z,10.50
2019-02-18T19:27:52.356Z,10.50
2019-02-18T19:30:23.891Z,10.50
2019-02-18T19:32:52.341Z,10.40
2019-02-18T19:35:23.798Z,10.40
2019-02-18T19:37:52.343Z,10.40
2019-02-18T19:40:21.459Z,10.30
2019-02-18T19:42:49.847Z,10.30
2019-02-18T19:45:19.442Z,10.30
2019-02-18T19:47:47.723Z,10.20
2019-02-18T19:50:18.132Z,10.10
2019-02-18T19:52:46.615Z,10.10
2019-02-18T19:55:14.787Z,10.10
2019-02-18T19:57:43.198Z,10.00
2019-02-18T20:00:14.144Z,10.00
2019-02-18T20:02:43.268Z,9.90
2019-02-18T20:05:12.101Z,9.90
2019-02-18T20:07:40.841Z,9.80
2019-02-18T20:10:09.496Z,9.80
2019-02-18T20:12:37.868Z,9.70
2019-02-18T20:15:06.523Z,9.70
2019-02-18T20:17:34.703Z,9.60
2019-02-18T20:20:03.086Z,9.60
2019-02-18T20:22:31.416Z,9.60
2019-02-18T20:24:59.483Z,9.60
2019-02-18T20:27:27.553Z,9.60
2019-02-18T20:29:55.610Z,9.50
2019-02-18T20:32:24.015Z,9.40
2019-02-18T20:34:52.034Z,9.40
2019-02-18T20:37:20.132Z,9.20
2019-02-18T20:39:48.249Z,9.20
2019-02-18T20:42:17.081Z,9.00
2019-02-18T20:44:45.259Z,8.90
2019-02-18T20:47:13.800Z,8.90
2019-02-18T20:49:41.933Z,8.90
2019-02-18T20:52:10.185Z,8.90
2019-02-18T20:54:38.342Z,8.80
2019-02-18T20:57:06.455Z,8.90
2019-02-18T20:59:34.605Z,8.90
2019-02-18T21:02:02.706Z,9.00
2019-02-18T21:04:30.855Z,9.00
2019-02-18T21:06:58.964Z,9.10
2019-02-18T21:09:28.125Z,9.10
2019-02-18T21:11:56.235Z,9.20
2019-02-18T21:14:24.597Z,9.20
2019-02-18T21:16:52.713Z,9.20
2019-02-18T21:19:21.212Z,9.30
2019-02-18T21:21:49.364Z,9.30
2019-02-18T21:24:17.519Z,9.30
2019-02-18T21:26:45.658Z,9.30
2019-02-18T21:29:13.880Z,9.30
2019-02-18T21:31:41.948Z,9.30
2019-02-18T21:34:10.993Z,9.40
2019-02-18T21:36:39.107Z,9.40
2019-02-18T21:39:11.879Z,9.40
2019-02-18T21:41:40.785Z,9.40
2019-02-18T21:44:09.036Z,9.40
2019-02-18T21:46:37.122Z,9.40
2019-02-18T21:49:05.266Z,9.50
2019-02-18T21:51:33.777Z,9.50
2019-02-18T21:54:01.825Z,9.50
2019-02-18T21:56:29.926Z,9.50
2019-02-18T21:58:58.061Z,9.50
2019-02-18T22:01:27.663Z,10.00
2019-02-18T22:03:55.884Z,9.80
2019-02-18T22:06:24.239Z,9.70
2019-02-18T22:08:52.308Z,9.80
2019-02-18T22:11:20.379Z,9.80
2019-02-18T22:13:49.484Z,9.70
2019-02-18T22:16:17.755Z,9.70
2019-02-18T22:18:46.072Z,9.70
2019-02-18T22:21:14.202Z,9.80
2019-02-18T22:23:42.777Z,9.90
2019-02-18T22:26:10.905Z,10.00
2019-02-18T22:28:38.975Z,10.00
2019-02-18T22:31:07.033Z,10.10
2019-02-18T22:33:35.265Z,10.20
2019-02-18T22:36:03.622Z,10.20
2019-02-18T22:38:31.799Z,10.20
2019-02-18T22:41:00.341Z,10.10
2019-02-18T22:43:28.389Z,10.00
2019-02-18T22:45:56.498Z,9.90
2019-02-18T22:48:24.538Z,9.90
2019-02-18T22:50:52.804Z,9.80
2019-02-18T22:53:20.948Z,9.70
2019-02-18T22:55:49.331Z,9.70
2019-02-18T22:58:17.939Z,9.60
2019-02-18T23:00:57.806Z,9.50
2019-02-18T23:03:25.984Z,9.50
2019-02-18T23:05:54.011Z,9.50
2019-02-18T23:08:22.410Z,9.50
2019-02-18T23:10:50.542Z,9.40
2019-02-18T23:13:19.171Z,9.40
2019-02-18T23:15:47.405Z,9.30
2019-02-18T23:18:16.146Z,9.30
2019-02-18T23:20:44.769Z,9.30
2019-02-18T23:23:12.956Z,9.30
2019-02-18T23:25:41.070Z,9.30
2019-02-18T23:28:09.305Z,9.20
2019-02-18T23:30:38.950Z,9.20
2019-02-18T23:33:07.535Z,9.10
2019-02-18T23:35:35.623Z,9.20
2019-02-18T23:38:03.681Z,9.20
2019-02-18T23:40:31.748Z,9.10
2019-02-18T23:42:59.869Z,9.00
2019-02-18T23:45:28.318Z,9.00
2019-02-18T23:47:56.420Z,9.00
2019-02-18T23:50:24.609Z,9.00
2019-02-18T23:52:52.697Z,8.90
2019-02-18T23:55:28.182Z,8.90
2019-02-18T23:57:53.621Z,8.90
